Time,TemperatureF,DewpointF,PressureIn,WindDirection,WindDirectionDegrees,WindSpeedMPH,WindSpeedGustMPH,Humidity,HourlyPrecipIn,Conditions,Clouds,dailyrainin,SoftwareType,DateUTC
2013-01-21 00:03:00,19.0,11.0,30.45,North,5,0.0,3.0,71,0.00,,,0.00,,2013-01-21 06:03:00,
2013-01-21 00:12:00,19.0,11.0,30.45,North,5,0.0,3.0,71,0.00,,,0.00,,2013-01-21 06:12:00,
2013-01-21 00:23:00,19.0,12.0,30.46,North,5,0.0,1.0,73,0.00,,,0.00,,2013-01-21 06:23:00,
2013-01-21 00:33:00,18.0,11.0,30.47,North,360,0.0,1.0,75,0.00,,,0.00,,2013-01-21 06:33:00,
2013-01-21 00:43:00,18.0,11.0,30.47,North,360,0.0,1.0,75,0.00,,,0.00,,2013-01-21 06:43:00,
2013-01-21 00:52:00,18.0,12.0,30.47,North,360,0.0,1.0,76,0.00,,,0.00,,2013-01-21 06:52:00,
2013-01-21 01:03:00,18.0,11.0,30.46,North,10,0.0,2.0,74,0.00,,,0.00,,2013-01-21 07:03:00,
2013-01-21 01:13:00,18.0,11.0,30.46,North,10,0.0,2.0,74,0.00,,,0.00,,2013-01-21 07:13:00,
2013-01-21 01:22:00,18.0,11.0,30.46,North,10,0.0,0.0,75,0.00,,,0.00,,2013-01-21 07:22:00,
2013-01-21 01:33:00,18.0,11.0,30.46,North,5,0.0,1.0,75,0.00,,,0.00,,2013-01-21 07:33:00,
2013-01-21 01:42:00,18.0,11.0,30.46,North,5,0.0,1.0,75,0.00,,,0.00,,2013-01-21 07:42:00,
2013-01-21 01:52:00,17.0,11.0,30.45,North,5,0.0,1.0,76,0.00,,,0.00,,2013-01-21 07:52:00,
2013-01-21 02:03:00,17.0,11.0,30.46,North,5,0.0,1.0,77,0.00,,,0.00,,2013-01-21 08:03:00,
2013-01-21 02:13:00,17.0,11.0,30.46,North,5,0.0,1.0,77,0.00,,,0.00,,2013-01-21 08:13:00,
2013-01-21 02:22:00,18.0,12.0,30.45,NNE,18,2.0,3.0,76,0.00,,,0.00,,2013-01-21 08:22:00,
2013-01-21 02:32:00,19.0,12.0,30.45,NNE,30,0.0,3.0,75,0.00,,,0.00,,2013-01-21 08:32:00,
2013-01-21 02:42:00,19.0,12.0,30.45,NNE,30,0.0,3.0,75,0.00,,,0.00,,2013-01-21 08:42:00,
2013-01-21 02:53:00,18.0,12.0,30.45,NNE,30,0.0,2.0,76,0.00,,,0.00,,2013-01-21 08:53:00,
2013-01-21 03:03:00,17.0,11.0,30.45,NNE,30,0.0,0.0,77,0.00,,,0.00,,2013-01-21 09:03:00,
2013-01-21 03:12:00,17.0,11.0,30.45,NNE,30,0.0,0.0,77,0.00,,,0.00,,2013-01-21 09:12:00,
2013-01-21 03:23:00,17.0,12.0,30.45,NNE,30,0.0,1.0,79,0.00,,,0.00,,2013-01-21 09:23:00,
2013-01-21 03:33:00,17.0,12.0,30.44,NNE,30,0.0,0.0,79,0.00,,,0.00,,2013-01-21 09:33:00,
2013-01-21 03:42:00,17.0,12.0,30.44,NNE,30,0.0,0.0,79,0.00,,,0.00,,2013-01-21 09:42:00,
2013-01-21 03:52:00,17.0,12.0,30.43,NNE,30,0.0,0.0,81,0.00,,,0.00,,2013-01-21 09:52:00,
2013-01-21 04:02:00,18.0,13.0,30.43,NNE,30,0.0,1.0,79,0.00,,,0.00,,2013-01-21 10:02:00,
2013-01-21 04:12:00,18.0,13.0,30.43,NNE,30,0.0,1.0,79,0.00,,,0.00,,2013-01-21 10:12:00,
2013-01-21 04:22:00,18.0,13.0,30.43,NNE,30,0.0,0.0,80,0.00,,,0.00,,2013-01-21 10:22:00,
2013-01-21 04:32:00,18.0,13.0,30.42,NNE,30,0.0,0.0,81,0.00,,,0.00,,2013-01-21 10:32:00,
2013-01-21 04:43:00,18.0,13.0,30.42,NNE,30,0.0,0.0,81,0.00,,,0.00,,2013-01-21 10:43:00,
2013-01-21 04:53:00,18.0,14.0,30.42,NNE,30,0.0,2.0,84,0.00,,,0.00,,2013-01-21 10:53:00,
2013-01-21 05:02:00,18.0,14.0,30.43,WSW,254,2.0,3.0,85,0.00,,,0.00,,2013-01-21 11:02:00,
2013-01-21 05:13:00,18.0,14.0,30.43,WSW,254,2.0,3.0,85,0.00,,,0.00,,2013-01-21 11:13:00,
2013-01-21 05:23:00,18.0,14.0,30.43,WSW,245,0.0,3.0,84,0.00,,,0.00,,2013-01-21 11:23:00,
2013-01-21 05:33:00,17.0,13.0,30.43,WSW,250,0.0,2.0,84,0.00,,,0.00,,2013-01-21 11:33:00,
2013-01-21 05:42:00,17.0,13.0,30.43,WSW,250,0.0,2.0,84,0.00,,,0.00,,2013-01-21 11:42:00,
2013-01-21 05:53:00,16.0,12.0,30.43,WSW,254,1.0,3.0,85,0.00,,,0.00,,2013-01-21 11:53:00,
2013-01-21 06:02:00,15.0,11.0,30.43,West,259,1.0,3.0,85,0.00,,,0.00,,2013-01-21 12:02:00,
2013-01-21 06:12:00,15.0,11.0,30.43,West,259,1.0,3.0,85,0.00,,,0.00,,2013-01-21 12:12:00,
2013-01-21 06:22:00,15.0,12.0,30.42,West,260,0.0,2.0,86,0.00,,,0.00,,2013-01-21 12:22:00,
2013-01-21 06:33:00,15.0,12.0,30.42,West,260,0.0,2.0,86,0.00,,,0.00,,2013-01-21 12:33:00,
2013-01-21 06:42:00,15.0,12.0,30.42,West,260,0.0,2.0,86,0.00,,,0.00,,2013-01-21 12:42:00,
2013-01-21 06:52:00,17.0,14.0,30.43,West,262,1.0,3.0,86,0.00,,,0.00,,2013-01-21 12:52:00,
2013-01-21 07:02:00,17.0,13.0,30.44,West,259,1.0,3.0,85,0.00,,,0.00,,2013-01-21 13:02:00,
2013-01-21 07:13:00,17.0,13.0,30.44,West,259,1.0,3.0,85,0.00,,,0.00,,2013-01-21 13:13:00,
2013-01-21 07:23:00,16.0,12.0,30.44,West,259,0.0,2.0,85,0.00,,,0.00,,2013-01-21 13:23:00,
2013-01-21 07:33:00,17.0,13.0,30.45,West,260,0.0,3.0,84,0.00,,,0.00,,2013-01-21 13:33:00,
2013-01-21 07:43:00,17.0,13.0,30.45,West,260,0.0,3.0,84,0.00,,,0.00,,2013-01-21 13:43:00,
2013-01-21 07:53:00,15.0,11.0,30.44,West,267,1.0,2.0,84,0.00,,,0.00,,2013-01-21 13:53:00,
2013-01-21 08:03:00,16.0,13.0,30.45,West,259,0.0,3.0,87,0.00,,,0.00,,2013-01-21 14:03:00,
2013-01-21 08:12:00,16.0,13.0,30.45,West,259,0.0,3.0,87,0.00,,,0.00,,2013-01-21 14:12:00,
2013-01-21 08:23:00,16.0,13.0,30.44,West,260,0.0,1.0,87,0.00,,,0.00,,2013-01-21 14:23:00,
2013-01-21 08:32:00,17.0,14.0,30.45,West,260,0.0,2.0,86,0.00,,,0.00,,2013-01-21 14:32:00,
2013-01-21 08:43:00,17.0,14.0,30.45,West,260,0.0,2.0,86,0.00,,,0.00,,2013-01-21 14:43:00,
2013-01-21 08:53:00,18.0,15.0,30.45,West,260,0.0,0.0,87,0.00,,,0.00,,2013-01-21 14:53:00,
2013-01-21 09:03:00,20.0,16.0,30.45,West,260,0.0,0.0,86,0.00,,,0.00,,2013-01-21 15:03:00,
2013-01-21 09:13:00,20.0,16.0,30.45,West,260,0.0,0.0,86,0.00,,,0.00,,2013-01-21 15:13:00,
2013-01-21 09:23:00,21.0,17.0,30.45,WSW,254,1.0,3.0,83,0.00,,,0.00,,2013-01-21 15:23:00,
2013-01-21 09:33:00,21.0,17.0,30.45,WSW,254,2.0,4.0,83,0.00,,,0.00,,2013-01-21 15:33:00,
2013-01-21 09:43:00,21.0,17.0,30.45,WSW,254,2.0,4.0,83,0.00,,,0.00,,2013-01-21 15:43:00,
2013-01-21 09:53:00,22.0,18.0,30.46,WSW,242,2.0,4.0,83,0.00,,,0.00,,2013-01-21 15:53:00,
2013-01-21 10:03:00,22.0,18.0,30.46,WSW,242,2.0,4.0,83,0.00,,,0.00,,2013-01-21 16:03:00,
2013-01-21 10:12:00,22.0,18.0,30.46,WSW,242,2.0,4.0,83,0.00,,,0.00,,2013-01-21 16:12:00,
2013-01-21 10:23:00,24.0,18.0,30.46,WSW,255,2.0,5.0,79,0.00,,,0.00,,2013-01-21 16:23:00,
2013-01-21 10:33:00,25.0,19.0,30.46,WSW,244,1.0,4.0,76,0.00,,,0.00,,2013-01-21 16:33:00,
2013-01-21 10:43:00,25.0,19.0,30.46,WSW,244,1.0,4.0,76,0.00,,,0.00,,2013-01-21 16:43:00,
2013-01-21 10:53:00,26.0,19.0,30.45,WSW,240,0.0,4.0,74,0.00,,,0.00,,2013-01-21 16:53:00,
2013-01-21 11:02:00,27.0,19.0,30.46,NNE,20,0.0,3.0,72,0.00,,,0.00,,2013-01-21 17:02:00,
2013-01-21 11:12:00,27.0,19.0,30.46,NNE,20,0.0,3.0,72,0.00,,,0.00,,2013-01-21 17:12:00,
2013-01-21 11:23:00,27.0,19.0,30.46,NNE,20,0.0,3.0,72,0.00,,,0.00,,2013-01-21 17:23:00,
2013-01-21 11:33:00,29.0,19.0,30.47,NE,42,3.0,7.0,66,0.00,,,0.00,,2013-01-21 17:33:00,
2013-01-21 11:43:00,29.0,19.0,30.47,NE,42,3.0,7.0,66,0.00,,,0.00,,2013-01-21 17:43:00,
2013-01-21 11:53:00,29.0,18.0,30.46,NE,37,0.0,7.0,64,0.00,,,0.00,,2013-01-21 17:53:00,
2013-01-21 12:03:00,29.0,18.0,30.45,NE,51,0.0,3.0,64,0.00,,,0.00,,2013-01-21 18:03:00,
2013-01-21 12:12:00,29.0,18.0,30.45,NE,51,0.0,3.0,64,0.00,,,0.00,,2013-01-21 18:12:00,
2013-01-21 12:22:00,31.0,20.0,30.45,NNE,22,2.0,6.0,62,0.00,,,0.00,,2013-01-21 18:22:00,
2013-01-21 12:33:00,29.0,18.0,30.43,NE,44,1.0,5.0,64,0.00,,,0.00,,2013-01-21 18:33:00,
2013-01-21 12:42:00,29.0,18.0,30.43,NE,44,1.0,5.0,64,0.00,,,0.00,,2013-01-21 18:42:00,
2013-01-21 12:53:00,32.0,20.0,30.43,NE,54,1.0,5.0,61,0.00,,,0.00,,2013-01-21 18:53:00,
2013-01-21 13:03:00,30.0,18.0,30.42,NNE,17,0.0,4.0,61,0.00,,,0.00,,2013-01-21 19:03:00,
2013-01-21 13:12:00,30.0,18.0,30.42,NNE,17,0.0,4.0,61,0.00,,,0.00,,2013-01-21 19:12:00,
2013-01-21 13:22:00,29.0,18.0,30.40,West,263,0.0,2.0,63,0.00,,,0.00,,2013-01-21 19:22:00,
2013-01-21 13:33:00,31.0,19.0,30.40,SSE,166,0.0,3.0,61,0.00,,,0.00,,2013-01-21 19:33:00,
2013-01-21 13:43:00,31.0,19.0,30.40,SSE,166,0.0,3.0,61,0.00,,,0.00,,2013-01-21 19:43:00,
2013-01-21 13:53:00,32.0,20.0,30.39,SSE,157,0.0,3.0,60,0.00,,,0.00,,2013-01-21 19:53:00,
2013-01-21 14:03:00,35.0,20.0,30.39,NE,44,0.0,2.0,55,0.00,,,0.00,,2013-01-21 20:03:00,
2013-01-21 14:12:00,35.0,20.0,30.39,NE,44,0.0,2.0,55,0.00,,,0.00,,2013-01-21 20:12:00,
2013-01-21 14:23:00,34.0,19.0,30.37,NNE,32,0.0,3.0,54,0.00,,,0.00,,2013-01-21 20:23:00,
2013-01-21 14:33:00,34.0,19.0,30.37,NNE,32,0.0,3.0,54,0.00,,,0.00,,2013-01-21 20:33:00,
2013-01-21 14:43:00,34.0,19.0,30.37,NNE,32,0.0,3.0,54,0.00,,,0.00,,2013-01-21 20:43:00,
2013-01-21 14:53:00,35.0,20.0,30.36,ENE,59,2.0,6.0,54,0.00,,,0.00,,2013-01-21 20:53:00,
2013-01-21 15:03:00,34.0,19.0,30.36,ENE,62,2.0,7.0,53,0.00,,,0.00,,2013-01-21 21:03:00,
2013-01-21 15:12:00,34.0,19.0,30.36,ENE,62,2.0,7.0,53,0.00,,,0.00,,2013-01-21 21:12:00,
2013-01-21 15:23:00,32.0,18.0,30.35,North,360,4.0,10.0,55,0.00,,,0.00,,2013-01-21 21:23:00,
2013-01-21 15:33:00,33.0,19.0,30.34,ENE,62,3.0,10.0,56,0.00,,,0.00,,2013-01-21 21:33:00,
2013-01-21 15:43:00,33.0,19.0,30.34,ENE,62,3.0,10.0,56,0.00,,,0.00,,2013-01-21 21:43:00,
2013-01-21 15:53:00,33.0,19.0,30.34,NNW,335,4.0,10.0,56,0.00,,,0.00,,2013-01-21 21:53:00,
2013-01-21 16:03:00,32.0,18.0,30.34,North,5,4.0,9.0,56,0.00,,,0.00,,2013-01-21 22:03:00,
2013-01-21 16:12:00,32.0,18.0,30.34,North,5,4.0,9.0,56,0.00,,,0.00,,2013-01-21 22:12:00,
2013-01-21 16:23:00,32.0,18.0,30.34,NNE,30,5.0,9.0,56,0.00,,,0.00,,2013-01-21 22:23:00,
2013-01-21 16:33:00,31.0,18.0,30.34,NNE,30,4.0,9.0,57,0.00,,,0.00,,2013-01-21 22:33:00,
2013-01-21 16:43:00,31.0,18.0,30.34,NNE,30,4.0,9.0,57,0.00,,,0.00,,2013-01-21 22:43:00,
2013-01-21 16:53:00,31.0,18.0,30.34,NNE,15,5.0,9.0,58,0.00,,,0.00,,2013-01-21 22:53:00,
2013-01-21 17:03:00,30.0,17.0,30.33,NNE,20,4.0,8.0,59,0.00,,,0.00,,2013-01-21 23:03:00,
2013-01-21 17:12:00,30.0,17.0,30.33,NNE,20,4.0,8.0,59,0.00,,,0.00,,2013-01-21 23:12:00,
2013-01-21 17:23:00,29.0,17.0,30.33,NNE,24,5.0,10.0,60,0.00,,,0.00,,2013-01-21 23:23:00,
2013-01-21 17:33:00,28.0,16.0,30.33,NNE,16,5.0,9.0,61,0.00,,,0.00,,2013-01-21 23:33:00,
2013-01-21 17:42:00,28.0,16.0,30.33,NNE,16,5.0,9.0,61,0.00,,,0.00,,2013-01-21 23:42:00,
2013-01-21 17:53:00,26.0,15.0,30.32,NE,36,6.0,10.0,63,0.00,,,0.00,,2013-01-21 23:53:00,
2013-01-21 18:02:00,24.0,14.0,30.32,NNE,18,5.0,11.0,66,0.00,,,0.00,,2013-01-22 00:02:00,
2013-01-21 18:12:00,24.0,14.0,30.32,NNE,18,5.0,11.0,66,0.00,,,0.00,,2013-01-22 00:12:00,
2013-01-21 18:22:00,24.0,15.0,30.32,NE,34,4.0,8.0,67,0.00,,,0.00,,2013-01-22 00:22:00,
2013-01-21 18:32:00,23.0,14.0,30.33,NNE,12,3.0,7.0,68,0.00,,,0.00,,2013-01-22 00:32:00,
2013-01-21 18:43:00,23.0,14.0,30.33,NNE,12,3.0,7.0,68,0.00,,,0.00,,2013-01-22 00:43:00,
2013-01-21 18:53:00,23.0,14.0,30.33,NE,44,5.0,8.0,69,0.00,,,0.00,,2013-01-22 00:53:00,
2013-01-21 19:02:00,22.0,13.0,30.35,NNE,22,4.0,8.0,69,0.00,,,0.00,,2013-01-22 01:02:00,
2013-01-21 19:12:00,22.0,13.0,30.35,NNE,22,4.0,8.0,69,0.00,,,0.00,,2013-01-22 01:12:00,
2013-01-21 19:23:00,21.0,13.0,30.34,NE,42,5.0,8.0,70,0.00,,,0.00,,2013-01-22 01:23:00,
2013-01-21 19:32:00,21.0,12.0,30.34,North,355,5.0,11.0,69,0.00,,,0.00,,2013-01-22 01:32:00,
2013-01-21 19:42:00,21.0,12.0,30.34,North,355,5.0,11.0,69,0.00,,,0.00,,2013-01-22 01:42:00,
2013-01-21 19:52:00,20.0,11.0,30.34,NNE,13,5.0,11.0,68,0.00,,,0.00,,2013-01-22 01:52:00,
2013-01-21 20:02:00,20.0,11.0,30.35,NNE,22,4.0,9.0,68,0.00,,,0.00,,2013-01-22 02:02:00,
2013-01-21 20:12:00,20.0,11.0,30.35,NNE,22,4.0,9.0,68,0.00,,,0.00,,2013-01-22 02:12:00,
2013-01-21 20:22:00,19.0,11.0,30.35,NNE,33,5.0,11.0,70,0.00,,,0.00,,2013-01-22 02:22:00,
2013-01-21 20:32:00,19.0,11.0,30.35,NE,37,4.0,8.0,71,0.00,,,0.00,,2013-01-22 02:32:00,
2013-01-21 20:42:00,19.0,11.0,30.35,NE,37,4.0,8.0,71,0.00,,,0.00,,2013-01-22 02:42:00,
2013-01-21 20:53:00,19.0,11.0,30.37,NNE,30,4.0,8.0,72,0.00,,,0.00,,2013-01-22 02:53:00,
2013-01-21 21:02:00,18.0,11.0,30.37,NNE,28,3.0,9.0,73,0.00,,,0.00,,2013-01-22 03:02:00,
2013-01-21 21:12:00,18.0,11.0,30.37,NNE,28,3.0,9.0,73,0.00,,,0.00,,2013-01-22 03:12:00,
2013-01-21 21:22:00,18.0,11.0,30.37,North,11,4.0,8.0,75,0.00,,,0.00,,2013-01-22 03:22:00,
2013-01-21 21:32:00,17.0,10.0,30.37,NE,34,4.0,8.0,74,0.00,,,0.00,,2013-01-22 03:32:00,
2013-01-21 21:42:00,17.0,10.0,30.37,NE,34,4.0,8.0,74,0.00,,,0.00,,2013-01-22 03:42:00,
2013-01-21 21:53:00,17.0,10.0,30.38,NE,34,4.0,8.0,74,0.00,,,0.00,,2013-01-22 03:53:00,
2013-01-21 22:02:00,17.0,10.0,30.39,North,5,4.0,7.0,75,0.00,,,0.00,,2013-01-22 04:02:00,
2013-01-21 22:12:00,17.0,10.0,30.39,North,5,4.0,7.0,75,0.00,,,0.00,,2013-01-22 04:12:00,
2013-01-21 22:22:00,16.0,10.0,30.38,NNE,15,2.0,6.0,76,0.00,,,0.00,,2013-01-22 04:22:00,
2013-01-21 22:32:00,15.0,9.0,30.38,North,5,2.0,5.0,77,0.00,,,0.00,,2013-01-22 04:32:00,
2013-01-21 22:42:00,15.0,9.0,30.38,North,5,2.0,5.0,77,0.00,,,0.00,,2013-01-22 04:42:00,
2013-01-21 22:52:00,15.0,10.0,30.39,NNE,17,1.0,4.0,79,0.00,,,0.00,,2013-01-22 04:52:00,
2013-01-21 23:03:00,15.0,10.0,30.38,NNE,28,3.0,7.0,79,0.00,,,0.00,,2013-01-22 05:03:00,
2013-01-21 23:12:00,15.0,10.0,30.38,NNE,28,3.0,7.0,79,0.00,,,0.00,,2013-01-22 05:12:00,
2013-01-21 23:22:00,16.0,10.0,30.38,NNE,17,2.0,6.0,78,0.00,,,0.00,,2013-01-22 05:22:00,
2013-01-21 23:32:00,16.0,10.0,30.38,NNE,17,2.0,6.0,78,0.00,,,0.00,,2013-01-22 05:32:00,
2013-01-21 23:42:00,16.0,10.0,30.38,NNE,17,2.0,6.0,78,0.00,,,0.00,,2013-01-22 05:42:00,
2013-01-21 23:53:00,17.0,11.0,30.38,NE,49,2.0,7.0,77,0.00,,,0.00,,2013-01-22 05:53:00,